invalid date format, no / or - is used, can not process this file use demodata - debug = METAR luchtvaart weer gegevens      EHAM Amsterdam Schiphol
 X  Sluit METAR luchtvaart weer gegevens      EHAM Amsterdam Schiphol

Temperatuur

13°C Temperatuur

12°C Dauwpunt

94% Vochtigheid



Wind

26 KM/U

16 MPH

 7 M/S

14 KTS



160°
Zuid Zuid
Oost
Huidig weer

Lichte regen Lichte regen
Luchtdruk 1000.92 (hPa) - 29.56 (inHg)
Zicht 6.2 (mile) - 10 (km)
Vliegveld
Vliegveld code EHAM

Locatie Amsterdam Schiphol 80 (km)

Metar:
EHAM 180755Z 16014KT 120V180 9999 -SHRA FEW009 SCT023CB 13/12 Q1001 TEMPO 20020G30KT 6000 SHRA

Tijd: 18-10-2019 09:55 CEST